Time;durP1;ratioP1;P1;durP2;ratioP2;P2;SDS_P1;SDS_P2;PMS_P1;PMS_P2;Temp;Humidity;BMP_temperature;BMP_pressure;BME280_temperature;BME280_humidity;BME280_pressure;Samples;Min_cycle;Max_cycle;Signal;HPM_P1;HPM_P2
2022/01/01 00:03:05;;;;;;;3.80;2.60;;;;;;;10.76;100.00;100426.27;5037660;57;1141739;-70
2022/01/01 00:08:11;;;;;;;8.50;7.70;;;;;;;10.77;100.00;100430.61;5037147;57;1141561;-71
2022/01/01 00:13:17;;;;;;;24.13;9.80;;;;;;;10.76;100.00;100428.92;5213946;56;1138983;-71
2022/01/01 00:18:23;;;;;;;5.03;2.23;;;;;;;10.79;100.00;100442.39;5216116;56;1141096;-71
2022/01/01 00:23:29;;;;;;;7.53;2.40;;;;;;;10.76;100.00;100450.09;5216937;56;1139117;-70
2022/01/01 00:28:34;;;;;;;5.67;1.63;;;;;;;10.75;100.00;100452.84;5217595;56;1139018;-71
2022/01/01 00:33:42;;;;;;;1.30;1.20;;;;;;;10.73;100.00;100462.70;5217409;56;1139320;-71
2022/01/01 00:38:48;;;;;;;1.90;1.20;;;;;;;10.70;100.00;100471.72;5217360;56;1139349;-70
2022/01/01 00:43:54;;;;;;;1.70;1.40;;;;;;;10.70;100.00;100477.48;5217550;56;1139314;-71
2022/01/01 00:49:00;;;;;;;3.73;1.83;;;;;;;10.67;100.00;100490.50;5186451;56;1139071;-71
2022/01/01 00:54:06;;;;;;;3.67;1.80;;;;;;;10.64;100.00;100501.31;5048572;58;1139029;-72
2022/01/01 00:59:12;;;;;;;1.90;1.43;;;;;;;10.60;100.00;100511.77;5048625;58;1138974;-72
2022/01/01 01:04:18;;;;;;;1.60;1.47;;;;;;;10.57;100.00;100505.38;5048503;58;1138925;-72
2022/01/01 01:09:23;;;;;;;2.83;1.80;;;;;;;10.57;100.00;100518.13;5083993;56;1139105;-70
2022/01/01 01:14:39;;;;;;;2.77;1.80;;;;;;;10.55;100.00;100525.33;5217639;56;1139460;-72
2022/01/01 01:19:37;;;;;;;4.47;2.42;;;;;;;10.51;100.00;100527.88;5215788;56;1139025;-72
2022/01/01 01:24:43;;;;;;;1.70;1.50;;;;;;;10.55;100.00;100537.71;5217586;56;1139018;-71
2022/01/01 01:29:49;;;;;;;5.10;2.63;;;;;;;10.54;100.00;100540.02;5218022;56;1139106;-71
2022/01/01 01:34:55;;;;;;;2.20;2.00;;;;;;;10.53;100.00;100546.27;5218105;56;1139036;-70
2022/01/01 01:40:02;;;;;;;1.60;1.50;;;;;;;10.51;100.00;100545.06;5218274;56;1137114;-72
2022/01/01 01:45:15;;;;;;;2.30;1.60;;;;;;;10.51;100.00;100549.51;5227853;56;1137062;-71
2022/01/01 01:50:19;;;;;;;1.63;1.53;;;;;;;10.49;100.00;100550.95;5227654;56;1141050;-71
2022/01/01 01:55:31;;;;;;;1.82;1.47;;;;;;;10.50;100.00;100559.72;5228035;56;1141117;-71
2022/01/01 02:05:57;;;;;;;2.25;1.65;;;;;;;10.49;100.00;100578.71;5228046;56;1141121;-70
2022/01/01 02:11:05;;;;;;;1.80;1.60;;;;;;;10.48;100.00;100581.47;5177823;56;1141162;-71
2022/01/01 02:21:24;;;;;;;13.53;4.97;;;;;;;10.44;100.00;100598.52;5128032;57;1141126;-71
2022/01/01 02:26:34;;;;;;;4.40;2.03;;;;;;;10.44;100.00;100601.16;5131481;57;1143235;-70
2022/01/01 02:31:40;;;;;;;2.10;1.57;;;;;;;10.46;100.00;100606.70;5131618;57;1141169;-71
2022/01/01 02:36:46;;;;;;;1.60;0.93;;;;;;;10.44;100.00;100611.26;5131746;57;1141101;-71
2022/01/01 02:41:55;;;;;;;3.13;1.10;;;;;;;10.42;100.00;100613.17;5131484;57;1141161;-71
2022/01/01 02:47:00;;;;;;;0.77;0.73;;;;;;;10.40;100.00;100626.98;5127905;57;1141266;-70
2022/01/01 02:52:06;;;;;;;1.52;0.98;;;;;;;10.38;100.00;100628.92;5120332;57;1141222;-71
2022/01/01 02:57:12;;;;;;;1.37;0.90;;;;;;;10.38;100.00;100626.76;5120486;57;1141296;-70
2022/01/01 03:02:18;;;;;;;1.57;1.00;;;;;;;10.37;100.00;100629.88;5120632;57;1141603;-71
2022/01/01 03:07:23;;;;;;;1.50;1.20;;;;;;;10.37;100.00;100629.88;5120695;57;1141206;-71
2022/01/01 03:12:29;;;;;;;1.77;1.67;;;;;;;10.37;100.00;100636.97;5056838;57;1141199;-71
2022/01/01 03:17:35;;;;;;;2.07;1.43;;;;;;;10.38;100.00;100636.02;5047800;57;1141405;-72
2022/01/01 03:22:41;;;;;;;3.00;2.10;;;;;;;10.37;100.00;100643.10;5047725;57;1141198;-71
2022/01/01 03:27:47;;;;;;;2.73;2.10;;;;;;;10.38;100.00;100642.14;5047745;58;1141172;-71
2022/01/01 03:32:53;;;;;;;1.77;1.30;;;;;;;10.37;100.00;100643.10;5047602;58;1141690;-71
2022/01/01 03:37:59;;;;;;;6.93;2.00;;;;;;;10.36;100.00;100655.11;5048608;57;1141365;-72
2022/01/01 03:43:04;;;;;;;3.60;1.90;;;;;;;10.34;100.00;100653.90;5048843;58;1141230;-71
2022/01/01 03:48:11;;;;;;;2.83;2.00;;;;;;;10.32;100.00;100651.00;5048906;57;1141499;-71
2022/01/01 03:53:17;;;;;;;1.87;1.37;;;;;;;10.29;100.00;100656.51;5048707;57;1141368;-71
2022/01/01 03:58:23;;;;;;;1.40;1.30;;;;;;;10.26;100.00;100662.86;5057839;57;1141213;-71
2022/01/01 04:03:29;;;;;;;3.90;1.20;;;;;;;10.26;100.00;100669.95;5058247;58;1141432;-71
2022/01/01 04:08:35;;;;;;;4.37;1.60;;;;;;;10.25;100.00;100676.19;5062076;57;1141155;-71
2022/01/01 04:13:41;;;;;;;0.90;0.90;;;;;;;10.25;100.00;100681.00;5141170;57;1141125;-71
2022/01/01 04:18:47;;;;;;;1.00;0.93;;;;;;;10.24;100.00;100684.59;5141281;57;1141046;-71
2022/01/01 04:23:53;;;;;;;1.23;1.13;;;;;;;10.25;100.00;100694.69;5141346;57;1141218;-71
2022/01/01 04:28:58;;;;;;;2.00;1.17;;;;;;;10.27;100.00;100697.59;5141339;57;1141315;-71
2022/01/01 04:34:04;;;;;;;1.10;1.10;;;;;;;10.28;100.00;100695.79;5141195;57;1141146;-72
2022/01/01 04:39:10;;;;;;;1.27;1.03;;;;;;;10.31;100.00;100702.18;5139470;57;1139066;-71
2022/01/01 04:44:16;;;;;;;1.07;0.90;;;;;;;10.31;100.00;100699.53;5130746;57;1139246;-72
2022/01/01 04:49:22;;;;;;;3.40;1.00;;;;;;;10.29;100.00;100698.33;5130612;57;1139091;-72
2022/01/01 04:54:31;;;;;;;1.77;0.75;;;;;;;10.31;100.00;100710.11;5091078;57;1139084;-71
2022/01/01 04:59:39;;;;;;;1.10;0.80;;;;;;;10.31;100.00;100710.95;5130665;57;1138989;-71
2022/01/01 05:04:45;;;;;;;2.03;1.30;;;;;;;10.27;100.00;100706.84;5130991;57;1139057;-70
2022/01/01 05:09:50;;;;;;;1.65;1.10;;;;;;;10.27;100.00;100706.84;5106280;57;1139250;-71
2022/01/01 05:14:56;;;;;;;1.53;1.20;;;;;;;10.29;100.00;100710.22;5047972;58;1139107;-72
2022/01/01 05:20:05;;;;;;;1.50;0.93;;;;;;;10.28;100.00;100714.30;5048990;58;1139153;-71
2022/01/01 05:25:11;;;;;;;1.20;0.50;;;;;;;10.28;100.00;100717.78;5049167;58;1139187;-71
2022/01/01 05:30:17;;;;;;;0.50;0.50;;;;;;;10.32;100.00;100722.38;5049319;58;1139103;-72
2022/01/01 05:35:23;;;;;;;0.93;0.67;;;;;;;10.31;100.00;100732.11;5049213;58;1139060;-72
2022/01/01 05:40:30;;;;;;;0.30;0.30;;;;;;;10.32;100.00;100731.63;5049255;57;1139303;-71
2022/01/01 05:45:37;;;;;;;0.43;0.43;;;;;;;10.34;100.00;100737.66;5049184;58;1139111;-71
2022/01/01 05:50:43;;;;;;;0.40;0.40;;;;;;;10.33;100.00;100739.45;5049149;58;1139301;-71
2022/01/01 05:55:50;;;;;;;0.93;0.30;;;;;;;10.34;100.00;100737.66;5049243;57;1139013;-71
2022/01/01 06:00:56;;;;;;;4.00;2.15;;;;;;;10.36;100.00;100746.32;5049067;58;1137087;-72
2022/01/01 06:06:02;;;;;;;1.23;0.60;;;;;;;10.36;100.00;100754.25;5049342;58;1137022;-71
2022/01/01 06:11:08;;;;;;;0.50;0.50;;;;;;;10.33;100.00;100758.44;5152617;56;1141060;-71
2022/01/01 06:16:14;;;;;;;2.00;0.50;;;;;;;10.35;100.00;100769.75;5220220;56;1141101;-71
2022/01/01 06:21:21;;;;;;;0.60;0.57;;;;;;;10.33;100.00;100773.82;5212919;56;1141018;-71
2022/01/01 06:26:26;;;;;;;0.80;0.80;;;;;;;10.34;100.00;100778.63;5214761;56;1141387;-70
2022/01/01 06:31:32;;;;;;;2.00;1.20;;;;;;;10.34;100.00;100775.52;5214873;56;1141140;-71
2022/01/01 06:36:39;;;;;;;3.90;1.00;;;;;;;10.34;100.00;100787.41;5212098;56;1141283;-72
2022/01/01 06:41:44;;;;;;;0.70;0.70;;;;;;;10.33;100.00;100791.48;5204294;56;1141218;-71
2022/01/01 06:46:51;;;;;;;1.70;0.70;;;;;;;10.32;100.00;100800.36;5203612;56;1141116;-70
2022/01/01 06:51:57;;;;;;;1.40;1.27;;;;;;;10.32;100.00;100801.21;5204087;56;1140465;-71
2022/01/01 06:57:03;;;;;;;3.27;0.87;;;;;;;10.34;100.00;100820.93;5204191;56;1140569;-71
2022/01/01 07:02:09;;;;;;;2.00;0.90;;;;;;;10.34;100.00;100820.45;5204353;56;1141228;-71
2022/01/01 07:07:15;;;;;;;1.40;0.80;;;;;;;10.34;100.00;100831.51;5205334;56;1141249;-71
2022/01/01 07:12:20;;;;;;;0.93;0.73;;;;;;;10.35;100.00;100835.84;5088347;56;1141377;-72
2022/01/01 07:17:28;;;;;;;1.47;0.70;;;;;;;10.35;100.00;100834.52;5085241;57;1141019;-72
2022/01/01 07:22:35;;;;;;;1.90;1.30;;;;;;;10.37;100.00;100856.41;5046435;57;1141274;-71
2022/01/01 07:27:42;;;;;;;1.67;1.27;;;;;;;10.36;100.00;100857.36;5114798;57;1141238;-70
2022/01/01 07:32:50;;;;;;;3.37;1.20;;;;;;;10.36;100.00;100866.61;5087071;57;1141218;-72
2022/01/01 07:37:57;;;;;;;2.33;1.20;;;;;;;10.35;100.00;100872.38;5046539;57;1141224;-71
2022/01/01 07:43:12;;;;;;;1.67;1.57;;;;;;;10.36;100.00;100873.23;5065289;57;1141618;-71
2022/01/01 07:48:18;;;;;;;2.77;2.07;;;;;;;10.32;100.00;100875.23;5086735;57;1141286;-71
2022/01/01 07:53:24;;;;;;;10.43;6.63;;;;;;;10.33;100.00;100888.83;5129301;57;1141128;-71
2022/01/01 07:58:31;;;;;;;3.30;3.00;;;;;;;10.33;100.00;100895.91;5128986;57;1143614;-71
2022/01/01 08:03:36;;;;;;;2.27;1.90;;;;;;;10.33;100.00;100899.40;5129188;57;1141340;-70
2022/01/01 08:08:42;;;;;;;1.83;1.73;;;;;;;10.32;100.00;100908.28;5123406;57;1141249;-71
2022/01/01 08:13:48;;;;;;;2.30;2.10;;;;;;;10.31;100.00;100921.13;5046324;57;1141123;-71
2022/01/01 08:18:53;;;;;;;1.67;1.40;;;;;;;10.28;100.00;100918.70;5046243;57;1141386;-71
2022/01/01 08:24:01;;;;;;;5.47;4.10;;;;;;;10.29;100.00;100930.96;5046386;57;1141460;-71
2022/01/01 08:29:07;;;;;;;4.70;2.73;;;;;;;10.29;100.00;100934.93;5046284;57;1141156;-72
2022/01/01 08:34:12;;;;;;;4.07;2.27;;;;;;;10.28;100.00;100929.75;5046202;57;1141143;-72
2022/01/01 08:39:19;;;;;;;4.27;2.10;;;;;;;10.28;100.00;100936.35;5046630;57;1141325;-71
2022/01/01 08:44:25;;;;;;;8.13;3.13;;;;;;;10.28;100.00;100949.57;5047045;57;1141119;-71
2022/01/01 08:49:31;;;;;;;3.77;1.73;;;;;;;10.27;100.00;100946.55;5047010;57;1141383;-71
2022/01/01 08:54:37;;;;;;;4.07;2.37;;;;;;;10.26;100.00;100954.11;5046895;57;1141256;-71
2022/01/01 08:59:43;;;;;;;5.70;2.57;;;;;;;10.23;100.00;100953.88;5046923;57;1141200;-71
2022/01/01 09:04:49;;;;;;;4.93;1.63;;;;;;;10.22;100.00;100961.44;5038620;57;1141181;-70
2022/01/01 09:09:55;;;;;;;4.63;2.53;;;;;;;10.20;100.00;100965.50;5061567;57;1141223;-70
2022/01/01 09:15:01;;;;;;;8.90;4.80;;;;;;;10.24;100.00;100972.72;5119015;57;1141187;-71
2022/01/01 09:20:08;;;;;;;2.73;2.10;;;;;;;10.26;100.00;100985.36;5128834;57;1139104;-71
2022/01/01 09:25:15;;;;;;;23.37;13.50;;;;;;;10.29;100.00;100986.95;5131097;57;1139175;-71
2022/01/01 09:30:21;;;;;;;9.17;5.60;;;;;;;10.29;100.00;100993.56;5100045;57;1143221;-71
2022/01/01 09:35:27;;;;;;;4.00;1.90;;;;;;;10.31;100.00;101003.56;5090417;57;1139120;-79
2022/01/01 09:40:34;;;;;;;16.47;8.57;;;;;;;10.31;100.00;101008.85;5125521;57;1139015;-82
2022/01/01 09:45:41;;;;;;;3.37;1.93;;;;;;;10.26;100.00;101001.22;5130458;57;1141094;-80
2022/01/01 09:50:49;;;;;;;4.60;2.77;;;;;;;10.26;100.00;101001.22;5130444;57;1139161;-80
2022/01/01 09:55:57;;;;;;;5.33;2.60;;;;;;;10.32;100.00;101023.29;5124633;57;1139314;-80
2022/01/01 10:01:06;;;;;;;6.57;3.87;;;;;;;10.34;100.00;101027.16;5070530;57;1139270;-80
2022/01/01 10:06:17;;;;;;;3.70;2.70;;;;;;;10.36;100.00;101037.16;5089547;57;1139075;-81
2022/01/01 10:11:23;;;;;;;23.60;11.50;;;;;;;10.34;100.00;101037.25;5058640;57;1139216;-80
2022/01/01 10:16:29;;;;;;;11.77;4.97;;;;;;;10.34;100.00;101046.51;5058552;58;1143232;-80
2022/01/01 10:21:39;;;;;;;41.77;22.83;;;;;;;10.35;100.00;101061.42;5058481;58;1141107;-79
2022/01/01 10:32:11;;;;;;;14.17;7.17;;;;;;;10.39;100.00;101066.84;5058916;58;1143110;-81
2022/01/01 10:37:18;;;;;;;6.33;3.80;;;;;;;10.39;100.00;101072.14;5103130;57;1143391;-80
2022/01/01 10:42:25;;;;;;;8.70;4.57;;;;;;;10.37;100.00;101077.19;5143088;57;1141137;-79
2022/01/01 10:47:33;;;;;;;89.80;57.43;;;;;;;10.32;100.00;101089.86;5142410;57;1141081;-81
2022/01/01 10:52:43;;;;;;;26.03;15.10;;;;;;;10.31;100.00;101090.81;5142754;57;1145253;-80
2022/01/01 10:57:57;;;;;;;9.97;7.47;;;;;;;10.27;100.00;101098.09;5129466;56;1145244;-82
2022/01/01 11:03:04;;;;;;;38.00;19.83;;;;;;;10.25;100.00;101096.49;5127275;57;1141036;-81
2022/01/01 11:08:12;;;;;;;211.03;100.80;;;;;;;10.26;100.00;101099.52;5141490;57;1145199;-81
2022/01/01 11:13:18;;;;;;;195.60;98.40;;;;;;;10.27;100.00;101113.11;5077455;57;1149640;-78
2022/01/01 11:18:26;;;;;;;168.03;82.77;;;;;;;10.26;100.00;101119.34;5096793;57;1147539;-78
2022/01/01 11:23:33;;;;;;;58.10;30.83;;;;;;;10.25;100.00;101122.45;5085289;57;1147316;-77
2022/01/01 11:28:41;;;;;;;157.67;82.67;;;;;;;10.24;100.00;101118.12;5049374;57;1145359;-77
2022/01/01 11:33:54;;;;;;;90.67;51.80;;;;;;;10.31;100.00;101123.86;5071569;57;1147458;-78
2022/01/01 11:39:07;;;;;;;88.50;50.90;;;;;;;10.33;100.00;101114.87;5079856;57;1145251;-77
2022/01/01 11:44:32;;;;;;;55.20;33.37;;;;;;;10.33;100.00;101127.25;5075876;57;1145269;-78
2022/01/01 11:49:38;;;;;;;28.63;19.30;;;;;;;10.31;100.00;101127.34;5078358;57;1145266;-78
2022/01/01 11:54:45;;;;;;;40.50;29.53;;;;;;;10.26;100.00;101129.91;5099497;57;1145253;-77
2022/01/01 12:00:02;;;;;;;16.80;13.47;;;;;;;10.25;100.00;101138.32;5093472;57;1145212;-80
2022/01/01 12:05:14;;;;;;;8.30;6.10;;;;;;;10.25;100.00;101144.08;5075175;57;1145416;-79
2022/01/01 12:10:26;;;;;;;5.40;4.33;;;;;;;10.27;100.00;101157.58;5092272;57;1141729;-80
2022/01/01 12:15:43;;;;;;;;;;;;;;;10.22;100.00;101163.66;5080752;57;1141382;-72
2022/01/01 12:21:03;;;;;;;12.53;10.47;;;;;;;10.18;100.00;101168.73;5060322;57;976385;-75
2022/01/01 12:26:14;;;;;;;12.90;9.17;;;;;;;10.10;100.00;101165.25;5118801;57;1141316;-69
2022/01/01 12:31:24;;;;;;;14.07;11.30;;;;;;;10.12;100.00;101172.61;5113826;57;1141377;-71
2022/01/01 12:36:31;;;;;;;6.55;5.83;;;;;;;10.15;100.00;101175.54;5079443;57;1143190;-72
2022/01/01 12:41:46;;;;;;;24.10;21.73;;;;;;;10.13;100.00;101180.07;5065066;57;1139069;-78
2022/01/01 12:46:57;;;;;;;21.17;19.07;;;;;;;10.09;100.00;101175.45;5117892;57;1142788;-76
2022/01/01 12:52:02;;;;;;;6.62;2.98;;;;;;;10.12;100.00;101171.30;5050721;57;1143179;-71
2022/01/01 12:57:09;;;;;;;4.43;4.00;;;;;;;10.12;100.00;101175.26;5035191;57;1139020;-72
2022/01/01 13:02:16;;;;;;;11.10;6.80;;;;;;;10.16;100.00;101182.05;5035106;57;1139086;-73
2022/01/01 13:07:22;;;;;;;20.03;10.67;;;;;;;10.27;100.00;101198.55;5035067;57;1139121;-75
2022/01/01 13:12:33;;;;;;;24.63;14.27;;;;;;;10.35;100.00;101200.71;5035190;57;1141077;-75
2022/01/01 13:17:47;;;;;;;21.82;14.23;;;;;;;10.37;100.00;101209.39;5046219;58;1145603;-72
2022/01/01 13:22:55;;;;;;;18.07;14.07;;;;;;;10.33;100.00;101223.28;5046221;58;1145666;-69
2022/01/01 13:28:04;;;;;;;18.07;12.70;;;;;;;10.31;100.00;101229.14;5011085;58;1145212;-73
2022/01/01 13:33:10;;;;;;;48.60;26.63;;;;;;;10.38;100.00;101231.77;5020995;58;1145374;-72
2022/01/01 13:38:18;;;;;;;56.27;29.33;;;;;;;10.42;100.00;101230.60;5055327;58;1145304;-76
2022/01/01 13:43:33;;;;;;;55.83;31.10;;;;;;;10.42;100.00;101229.75;5055391;58;1145331;-73
2022/01/01 13:48:49;;;;;;;116.17;70.63;;;;;;;10.38;100.00;101248.11;5055392;58;1145508;-72
2022/01/01 13:54:14;;;;;;;25.00;14.40;;;;;;;10.41;100.00;101255.81;5055238;58;1147483;-73
2022/01/01 13:59:29;;;;;;;66.50;39.47;;;;;;;10.36;100.00;101248.68;5055407;58;1145313;-74
2022/01/01 14:04:37;;;;;;;23.70;13.60;;;;;;;10.34;100.00;101251.42;5054868;58;1145273;-74
2022/01/01 14:10:06;;;;;;;82.13;49.93;;;;;;;10.47;100.00;101248.82;5078168;57;1145323;-73
2022/01/01 14:15:19;;;;;;;42.40;22.80;;;;;;;10.49;100.00;101261.47;5138368;57;1145412;-72
2022/01/01 14:20:51;;;;;;;116.65;63.38;;;;;;;10.49;100.00;101268.94;5138612;57;1145288;-74
2022/01/01 14:26:02;;;;;;;78.93;49.63;;;;;;;10.49;100.00;101272.05;5214998;56;1147518;-76
2022/01/01 14:31:08;;;;;;;37.20;24.43;;;;;;;10.47;100.00;101286.70;5215430;56;1143199;-72
2022/01/01 14:36:15;;;;;;;42.30;27.13;;;;;;;10.42;100.00;101286.61;5215229;56;1143362;-78
2022/01/01 14:41:22;;;;;;;29.70;18.73;;;;;;;10.38;100.00;101278.52;5215087;56;1143325;-76
2022/01/01 14:46:32;;;;;;;37.77;22.00;;;;;;;10.42;100.00;101280.00;5215197;56;1143184;-76
2022/01/01 14:52:07;;;;;;;40.33;24.30;;;;;;;10.46;100.00;101288.11;5214972;56;1143202;-75
2022/01/01 14:57:43;;;;;;;50.60;23.85;;;;;;;10.41;100.00;101291.05;5155873;56;1143192;-76
2022/01/01 15:02:49;;;;;;;24.80;12.23;;;;;;;10.38;100.00;101312.42;4975962;59;1141416;-73
2022/01/01 15:07:55;;;;;;;18.13;13.00;;;;;;;10.32;100.00;101314.13;4976215;59;1145409;-77
2022/01/01 15:13:02;;;;;;;17.67;12.77;;;;;;;10.32;100.00;101320.73;5051227;58;1145304;-74
2022/01/01 15:18:10;;;;;;;20.95;11.25;;;;;;;10.20;100.00;101340.02;5056613;58;1145353;-78
2022/01/01 15:23:30;;;;;;;15.17;11.27;;;;;;;10.08;100.00;101343.41;5020933;58;1145412;-71
2022/01/01 15:28:37;;;;;;;28.27;19.73;;;;;;;9.92;100.00;101346.16;4910412;59;1145442;-71
2022/01/01 15:33:44;;;;;;;16.47;10.93;;;;;;;9.83;100.00;101344.91;4884366;59;1143643;-78
2022/01/01 15:38:57;;;;;;;51.68;35.50;;;;;;;9.75;100.00;101350.30;4999041;57;1143195;-71
2022/01/01 15:44:00;;;;;;;13.37;8.20;;;;;;;9.70;100.00;101361.12;5011002;57;1143288;-77
2022/01/01 15:49:08;;;;;;;22.33;13.60;;;;;;;9.67;100.00;101356.02;5047782;57;1141287;-74
2022/01/01 15:54:15;;;;;;;22.70;10.07;;;;;;;9.67;100.00;101357.81;5047692;57;1143513;-81
2022/01/01 15:59:24;;;;;;;43.83;27.57;;;;;;;9.68;100.00;101360.37;5048201;57;1143367;-73
2022/01/01 16:04:59;;;;;;;33.00;18.00;;;;;;;9.69;100.00;101349.33;5048137;57;1143665;-81
2022/01/01 16:10:07;;;;;;;93.03;54.97;;;;;;;9.72;100.00;101346.52;5065594;57;1143283;-78
2022/01/01 16:15:15;;;;;;;52.00;21.40;;;;;;;9.76;100.00;101352.00;4955565;59;1143620;-78
2022/01/01 16:20:23;;;;;;;31.00;17.20;;;;;;;9.75;100.00;101355.11;5049158;57;1143236;-74
2022/01/01 16:25:32;;;;;;;19.27;10.23;;;;;;;9.71;100.00;101365.47;5109946;57;1143579;-77
2022/01/01 16:30:44;;;;;;;42.40;21.90;;;;;;;9.68;100.00;101377.53;5088291;57;1143473;-75
2022/01/01 16:35:53;;;;;;;29.23;14.53;;;;;;;9.68;100.00;101387.25;5080339;57;1143316;-79
2022/01/01 16:41:09;;;;;;;23.67;12.70;;;;;;;9.70;100.00;101385.38;5085315;57;1143170;-79
2022/01/01 16:46:22;;;;;;;21.83;11.83;;;;;;;9.69;100.00;101384.99;5056076;57;1143243;-79
2022/01/01 16:51:29;;;;;;;32.87;16.27;;;;;;;9.70;100.00;101391.51;5120758;57;1143153;-78
2022/01/01 16:56:39;;;;;;;23.97;14.57;;;;;;;9.68;100.00;101397.34;5131034;57;1143508;-80
2022/01/01 17:01:48;;;;;;;27.33;12.77;;;;;;;9.63;100.00;101401.20;5097317;57;1141110;-81
2022/01/01 17:06:58;;;;;;;45.57;25.33;;;;;;;9.58;100.00;101405.45;5111666;57;1141101;-79
2022/01/01 17:12:04;;;;;;;46.27;28.17;;;;;;;9.60;100.00;101400.08;5097901;57;1141241;-80
2022/01/01 17:17:33;;;;;;;40.43;21.47;;;;;;;9.70;100.00;101407.36;5106397;57;1141581;-80
2022/01/01 17:22:49;;;;;;;11.57;8.13;;;;;;;9.77;100.00;101406.06;5065660;57;1140994;-80
2022/01/01 17:28:41;;;;;;;17.33;10.90;;;;;;;9.84;100.00;101398.12;5124121;57;1139097;-79
2022/01/01 17:34:06;;;;;;;23.03;11.83;;;;;;;9.92;100.00;101402.11;5125124;57;1143120;-81
2022/01/01 17:44:27;;;;;;;33.53;15.73;;;;;;;10.07;100.00;101402.03;5075970;57;1145250;-80
2022/01/01 17:49:42;;;;;;;26.10;12.27;;;;;;;10.11;100.00;101410.59;5110142;57;1145401;-80
2022/01/01 17:54:47;;;;;;;18.83;10.53;;;;;;;10.11;100.00;101415.41;5122977;56;1145196;-79
2022/01/01 17:59:53;;;;;;;48.53;21.47;;;;;;;10.13;100.00;101417.96;5092298;57;1145275;-79
2022/01/01 18:04:59;;;;;;;61.90;26.73;;;;;;;10.15;100.00;101425.33;5137422;57;1145553;-79
2022/01/01 18:10:08;;;;;;;52.87;24.63;;;;;;;10.10;100.00;101424.28;5112931;57;1145740;-79
2022/01/01 18:15:17;;;;;;;65.90;30.00;;;;;;;10.08;100.00;101443.84;5050391;58;1145543;-79
2022/01/01 18:20:25;;;;;;;60.03;26.47;;;;;;;10.06;100.00;101449.69;5057579;58;1145403;-79
2022/01/01 18:25:43;;;;;;;56.83;26.07;;;;;;;10.05;100.00;101442.70;5016907;58;1145311;-80
2022/01/01 18:30:50;;;;;;;62.63;26.77;;;;;;;10.07;100.00;101448.75;5081224;57;1145369;-79
2022/01/01 18:35:58;;;;;;;54.13;26.70;;;;;;;10.11;100.00;101452.41;5086471;57;1145290;-80
2022/01/01 18:41:07;;;;;;;53.97;27.43;;;;;;;10.10;100.00;101453.36;5075699;57;1145777;-80
2022/01/01 18:46:13;;;;;;;52.93;28.00;;;;;;;10.02;100.00;101449.02;5071026;57;1145253;-79
2022/01/01 18:51:31;;;;;;;67.33;34.43;;;;;;;10.01;100.00;101452.61;5090975;57;1145535;-79
2022/01/01 18:56:52;;;;;;;61.60;32.57;;;;;;;10.03;100.00;101448.55;4987217;58;1145347;-80
2022/01/01 19:02:03;;;;;;;82.37;35.43;;;;;;;10.03;100.00;101442.80;4965648;58;1145427;-79
2022/01/01 19:07:11;;;;;;;96.40;42.80;;;;;;;10.04;100.00;101451.11;4915832;58;1143189;-79
2022/01/01 19:12:27;;;;;;;96.87;45.17;;;;;;;9.97;100.00;101440.98;4884435;59;1143689;-80
2022/01/01 19:17:35;;;;;;;104.73;41.60;;;;;;;9.90;100.00;101442.31;4872364;58;1140964;-80
2022/01/01 19:22:45;;;;;;;65.80;29.90;;;;;;;9.83;100.00;101458.98;4882943;58;1143308;-79
2022/01/01 19:27:51;;;;;;;86.53;36.70;;;;;;;9.76;100.00;101468.23;4882483;59;1141156;-79
2022/01/01 19:32:57;;;;;;;92.53;42.63;;;;;;;9.69;100.00;101465.56;4876494;59;1141133;-79
2022/01/01 19:38:04;;;;;;;109.60;46.30;;;;;;;9.71;100.00;101463.68;4942285;59;1141148;-79
2022/01/01 19:43:20;;;;;;;81.20;33.50;;;;;;;9.67;100.00;101463.47;4948294;59;1143103;-74
2022/01/01 19:48:30;;;;;;;40.70;18.83;;;;;;;9.56;100.00;101454.87;4942822;59;1141433;-77
2022/01/01 19:53:36;;;;;;;47.60;22.47;;;;;;;9.54;100.00;101456.73;4936267;59;1141495;-79
2022/01/01 19:58:42;;;;;;;39.47;19.43;;;;;;;9.48;100.00;101452.66;4915373;58;1141002;-79
2022/01/01 20:03:47;;;;;;;59.60;28.23;;;;;;;9.45;100.00;101455.97;4935879;59;1139113;-79
2022/01/01 20:08:54;;;;;;;101.53;42.07;;;;;;;9.53;100.00;101459.00;4914233;59;1138917;-78
2022/01/01 20:14:00;;;;;;;91.83;40.53;;;;;;;9.53;100.00;101459.00;4974670;59;1145289;-79
2022/01/01 20:19:06;;;;;;;75.47;34.60;;;;;;;9.56;100.00;101464.58;4935235;59;1143142;-79
2022/01/01 20:24:12;;;;;;;58.93;27.97;;;;;;;9.55;100.00;101468.16;4964722;59;1143167;-79
2022/01/01 20:29:18;;;;;;;84.00;33.70;;;;;;;9.62;100.00;101469.05;4953406;58;1143140;-79
2022/01/01 20:34:24;;;;;;;68.50;31.07;;;;;;;9.68;100.00;101474.42;5131228;57;1143111;-79
2022/01/01 20:39:29;;;;;;;68.70;28.67;;;;;;;9.61;100.00;101473.95;5101484;57;1143055;-78
2022/01/01 20:44:36;;;;;;;55.83;24.23;;;;;;;9.62;100.00;101472.16;5080604;57;1143039;-77
2022/01/01 20:49:42;;;;;;;58.13;29.20;;;;;;;9.57;100.00;101473.73;5095684;57;1143086;-77
2022/01/01 20:54:48;;;;;;;50.70;28.13;;;;;;;9.49;100.00;101470.67;5097590;57;1143138;-77
2022/01/01 20:59:54;;;;;;;32.63;18.40;;;;;;;9.43;100.00;101468.41;5092110;57;1143265;-77
2022/01/01 21:05:08;;;;;;;26.37;15.47;;;;;;;9.46;100.00;101473.52;5141629;57;1143155;-77
2022/01/01 21:10:14;;;;;;;102.83;42.33;;;;;;;9.47;100.00;101465.47;5110428;57;1143168;-77
2022/01/01 21:15:20;;;;;;;110.67;45.47;;;;;;;9.53;100.00;101462.96;5058263;57;1145193;-77
2022/01/01 21:20:26;;;;;;;12.60;8.37;;;;;;;9.60;100.00;101463.47;5080963;57;1145423;-78
2022/01/01 21:25:32;;;;;;;17.07;10.03;;;;;;;9.59;100.00;101461.77;5088354;57;1141057;-78
2022/01/01 21:30:38;;;;;;;18.37;10.97;;;;;;;9.52;100.00;101454.19;5103616;57;1143224;-78
2022/01/01 21:35:44;;;;;;;11.97;7.20;;;;;;;9.51;100.00;101455.59;5108085;57;1143099;-78
2022/01/01 21:40:50;;;;;;;13.37;7.30;;;;;;;9.52;100.00;101448.91;5085768;57;1141272;-78
2022/01/01 21:45:56;;;;;;;28.13;11.37;;;;;;;9.58;100.00;101441.11;5084255;57;1140549;-78
2022/01/01 21:51:02;;;;;;;36.23;11.93;;;;;;;9.59;100.00;101422.15;5048635;57;1143188;-82
2022/01/01 21:56:07;;;;;;;12.05;6.97;;;;;;;9.48;100.00;101418.80;5098258;57;1143097;-72
2022/01/01 22:01:13;;;;;;;5.03;3.70;;;;;;;9.42;100.00;101406.83;5051635;57;1141038;-73
2022/01/01 22:06:19;;;;;;;9.47;5.77;;;;;;;9.42;100.00;101394.94;5129860;57;1139001;-76
2022/01/01 22:11:25;;;;;;;10.30;6.13;;;;;;;9.46;100.00;101390.34;5079305;57;1139001;-74
2022/01/01 22:16:30;;;;;;;17.07;7.90;;;;;;;9.49;100.00;101382.21;5106236;57;1141080;-76
2022/01/01 22:21:36;;;;;;;21.93;9.33;;;;;;;9.51;100.00;101373.27;5129796;57;1141086;-72
2022/01/01 22:26:42;;;;;;;24.37;9.90;;;;;;;9.50;100.00;101373.34;5129874;57;1141157;-77
2022/01/01 22:31:48;;;;;;;112.10;50.57;;;;;;;9.47;100.00;101367.78;5129623;57;1141083;-75
2022/01/01 22:36:57;;;;;;;82.00;30.33;;;;;;;9.51;100.00;101367.98;5129706;57;1145268;-77
2022/01/01 22:42:03;;;;;;;30.80;12.37;;;;;;;9.52;100.00;101344.59;5129627;57;1143179;-75
2022/01/01 22:47:11;;;;;;;29.93;12.67;;;;;;;9.53;100.00;101334.41;5129776;57;1143260;-75
2022/01/01 22:52:17;;;;;;;55.73;21.70;;;;;;;9.59;100.00;101354.33;5129688;57;1143148;-75
2022/01/01 22:57:23;;;;;;;39.30;16.67;;;;;;;9.64;100.00;101344.79;5129773;57;1143212;-75
2022/01/01 23:02:29;;;;;;;56.55;22.77;;;;;;;9.66;100.00;101338.95;5129614;57;1143159;-73
2022/01/01 23:07:34;;;;;;;28.43;11.87;;;;;;;9.68;100.00;101322.54;5129609;57;1143126;-77
2022/01/01 23:12:41;;;;;;;40.87;18.13;;;;;;;9.67;100.00;101317.73;5129592;57;1143100;-75
2022/01/01 23:18:23;;;;;;;60.50;26.60;;;;;;;9.69;100.00;101327.73;5129645;57;1143126;-74